Time;durP1;ratioP1;P1;durP2;ratioP2;P2;SDS_P1;SDS_P2;PMS_P1;PMS_P2;Temp;Humidity;BMP_temperature;BMP_pressure;BME280_temperature;BME280_humidity;BME280_pressure;Samples;Min_cycle;Max_cycle;Signal;HPM_P1;HPM_P2
2021/01/21 00:01:07;;;;;;;5.07;2.00;;;11.00;99.90;;;;;;5012753;28;20206;-77
2021/01/21 00:03:33;;;;;;;3.53;2.00;;;11.10;99.90;;;;;;5012925;28;20187;-77
2021/01/21 00:06:00;;;;;;;7.20;1.83;;;11.10;99.90;;;;;;5013045;28;20176;-77
2021/01/21 00:08:26;;;;;;;9.97;3.03;;;11.10;99.90;;;;;;5012920;28;20532;-77
2021/01/21 00:10:52;;;;;;;6.70;2.87;;;11.10;99.90;;;;;;5012509;28;20804;-77
2021/01/21 00:13:17;;;;;;;4.83;2.53;;;11.10;99.90;;;;;;5011578;28;20414;-77
2021/01/21 00:15:43;;;;;;;7.83;3.20;;;11.10;99.90;;;;;;5023382;28;20203;-77
2021/01/21 00:18:09;;;;;;;9.60;2.77;;;11.10;99.90;;;;;;5018608;28;20262;-77
2021/01/21 00:20:34;;;;;;;7.67;2.37;;;11.00;99.90;;;;;;5013312;28;20207;-77
2021/01/21 00:23:00;;;;;;;9.20;2.90;;;11.10;99.90;;;;;;5028968;28;20203;-78
2021/01/21 00:25:25;;;;;;;7.03;3.70;;;11.00;99.90;;;;;;5012478;28;20314;-77
2021/01/21 00:27:51;;;;;;;11.03;2.47;;;11.00;99.90;;;;;;5012604;28;20673;-78
2021/01/21 00:30:17;;;;;;;5.10;2.20;;;11.00;99.90;;;;;;5011742;28;20200;-78
2021/01/21 00:32:43;;;;;;;5.37;2.13;;;11.00;99.90;;;;;;5012161;28;20180;-78
2021/01/21 00:35:10;;;;;;;3.20;1.50;;;11.10;99.90;;;;;;5010068;28;20453;-78
2021/01/21 00:37:36;;;;;;;5.10;2.63;;;11.10;99.90;;;;;;5011731;28;20184;-78
2021/01/21 00:40:01;;;;;;;4.50;1.80;;;11.10;99.90;;;;;;5013230;28;20920;-79
2021/01/21 00:42:27;;;;;;;4.40;2.03;;;11.10;99.90;;;;;;5012822;28;20183;-77
2021/01/21 00:44:53;;;;;;;7.30;2.67;;;11.00;99.90;;;;;;5011942;28;20177;-78
2021/01/21 00:47:18;;;;;;;9.37;2.73;;;11.10;99.90;;;;;;5011061;28;20192;-78
2021/01/21 00:49:44;;;;;;;9.70;3.57;;;11.10;99.90;;;;;;5012025;28;20423;-78
2021/01/21 00:52:10;;;;;;;8.23;2.57;;;11.00;99.90;;;;;;5012045;28;20277;-78
2021/01/21 00:54:35;;;;;;;4.87;2.50;;;11.00;99.90;;;;;;5012402;28;20172;-79
2021/01/21 00:57:01;;;;;;;7.53;2.57;;;11.00;99.90;;;;;;5025763;28;20179;-79
2021/01/21 00:59:26;;;;;;;2.40;1.60;;;11.10;99.90;;;;;;5007767;28;20198;-78
2021/01/21 01:01:52;;;;;;;2.20;1.50;;;11.10;99.90;;;;;;5035292;28;20202;-78
2021/01/21 01:04:18;;;;;;;7.43;1.70;;;11.10;99.90;;;;;;5029217;28;20263;-79
2021/01/21 01:06:43;;;;;;;4.03;2.10;;;11.10;99.90;;;;;;5020898;28;20191;-78
2021/01/21 01:09:09;;;;;;;2.77;1.30;;;11.10;99.90;;;;;;5030790;28;20207;-78
2021/01/21 01:11:35;;;;;;;4.00;1.40;;;11.20;99.90;;;;;;5019882;28;20199;-78
2021/01/21 01:14:00;;;;;;;2.53;1.57;;;11.10;99.90;;;;;;5010087;28;20234;-78
2021/01/21 01:16:26;;;;;;;6.03;1.67;;;11.10;99.90;;;;;;5015150;28;20179;-79
2021/01/21 01:18:51;;;;;;;4.30;1.30;;;11.20;99.90;;;;;;5022400;28;20184;-78
2021/01/21 01:21:17;;;;;;;1.63;1.20;;;11.20;99.90;;;;;;5040473;28;20311;-79
2021/01/21 01:23:43;;;;;;;3.90;2.40;;;11.20;99.90;;;;;;5023238;28;20194;-78
2021/01/21 01:26:08;;;;;;;3.40;2.07;;;11.30;99.90;;;;;;5023002;28;20187;-78
2021/01/21 01:28:34;;;;;;;5.33;1.70;;;11.30;99.90;;;;;;5011389;28;20204;-80
2021/01/21 01:30:59;;;;;;;4.00;1.70;;;11.30;99.90;;;;;;5011037;28;20217;-79
2021/01/21 01:33:25;;;;;;;5.33;3.20;;;11.30;99.90;;;;;;5011975;28;20187;-78
2021/01/21 01:35:50;;;;;;;5.57;2.37;;;11.30;99.90;;;;;;5027566;28;20203;-78
2021/01/21 01:38:16;;;;;;;6.47;2.40;;;11.30;99.90;;;;;;5003398;28;20496;-78
2021/01/21 01:40:42;;;;;;;4.97;2.23;;;11.30;99.90;;;;;;5004570;28;20206;-77
2021/01/21 01:43:07;;;;;;;8.73;3.23;;;11.30;99.90;;;;;;5005331;28;20239;-79
2021/01/21 01:45:33;;;;;;;3.83;2.10;;;11.30;99.90;;;;;;5012510;28;20189;-79
2021/01/21 01:47:59;;;;;;;8.97;2.53;;;11.40;99.90;;;;;;5012311;28;20242;-78
2021/01/21 01:50:25;;;;;;;2.67;1.50;;;11.40;99.90;;;;;;5023274;28;20261;-77
2021/01/21 01:52:55;;;;;;;7.60;2.20;;;11.40;99.90;;;;;;5016023;28;20435;-78
2021/01/21 01:55:20;;;;;;;4.83;2.63;;;11.40;99.90;;;;;;5025324;28;20437;-79
2021/01/21 01:57:52;;;;;;;5.57;1.87;;;11.40;99.90;;;;;;5017172;28;20439;-78
2021/01/21 02:00:19;;;;;;;4.80;2.13;;;11.40;99.90;;;;;;5017093;28;20547;-78
2021/01/21 02:02:49;;;;;;;2.30;1.50;;;11.50;99.90;;;;;;5019833;28;21120;-79
2021/01/21 02:05:15;;;;;;;5.27;2.07;;;11.50;99.90;;;;;;5018282;28;20451;-77
2021/01/21 02:07:42;;;;;;;3.77;2.33;;;11.50;99.90;;;;;;5015641;28;20463;-78
2021/01/21 02:10:09;;;;;;;8.20;2.30;;;11.50;99.90;;;;;;5009087;28;20485;-79
2021/01/21 02:12:54;;;;;;;5.90;2.50;;;11.50;99.90;;;;;;5018142;28;20419;-78
2021/01/21 02:15:58;;;;;;;5.00;1.97;;;11.50;99.90;;;;;;5014129;28;20510;-78
2021/01/21 02:18:33;;;;;;;2.93;1.77;;;11.60;99.90;;;;;;5020629;28;20430;-79
2021/01/21 02:21:05;;;;;;;4.17;1.50;;;11.60;99.90;;;;;;5043566;28;20533;-78
2021/01/21 02:23:46;;;;;;;3.50;1.73;;;11.60;99.90;;;;;;5021663;28;20444;-79
2021/01/21 02:26:20;;;;;;;11.40;2.27;;;11.50;99.90;;;;;;5013173;28;20437;-79
2021/01/21 02:28:51;;;;;;;2.30;1.30;;;11.60;99.90;;;;;;5024367;28;20496;-78
2021/01/21 02:31:48;;;;;;;5.30;1.67;;;11.70;99.90;;;;;;5027719;28;20465;-79
2021/01/21 02:34:22;;;;;;;4.40;1.40;;;11.70;99.90;;;;;;5045440;28;20446;-79
2021/01/21 02:36:54;;;;;;;4.60;1.57;;;11.70;99.90;;;;;;5036868;28;20433;-78
2021/01/21 02:39:21;;;;;;;3.60;1.50;;;11.70;99.90;;;;;;5013897;28;20442;-78
2021/01/21 02:41:47;;;;;;;8.53;1.40;;;11.70;99.90;;;;;;5020145;28;20463;-79
2021/01/21 02:44:14;;;;;;;5.37;1.73;;;11.70;99.90;;;;;;5029952;28;20550;-79
2021/01/21 02:46:41;;;;;;;5.73;1.67;;;11.60;99.90;;;;;;5035226;28;20186;-78
2021/01/21 02:49:07;;;;;;;1.70;1.30;;;11.60;99.90;;;;;;5011213;28;20897;-78
2021/01/21 02:51:44;;;;;;;2.00;1.20;;;11.60;99.90;;;;;;5021327;28;20454;-78
2021/01/21 02:54:44;;;;;;;2.50;1.40;;;11.70;99.90;;;;;;5019479;28;20438;-78
2021/01/21 02:57:25;;;;;;;4.03;1.50;;;11.70;99.90;;;;;;5029284;28;20438;-79
2021/01/21 02:59:55;;;;;;;2.43;1.33;;;11.60;99.90;;;;;;5013713;28;20427;-78
2021/01/21 03:02:24;;;;;;;3.03;1.37;;;11.60;99.90;;;;;;5002011;28;20431;-78
2021/01/21 03:04:52;;;;;;;1.63;1.23;;;11.60;99.90;;;;;;5013099;28;20439;-78
2021/01/21 03:07:21;;;;;;;3.30;1.43;;;11.60;99.90;;;;;;5027081;28;20431;-78
2021/01/21 03:09:47;;;;;;;1.43;1.13;;;11.60;99.90;;;;;;5025173;28;20445;-77
2021/01/21 03:12:16;;;;;;;4.50;1.53;;;11.60;99.90;;;;;;5025240;28;20517;-78
2021/01/21 03:14:42;;;;;;;2.50;1.20;;;11.60;99.90;;;;;;5046537;28;20503;-79
2021/01/21 03:17:07;;;;;;;3.83;1.40;;;11.70;99.90;;;;;;5020463;28;20885;-78
2021/01/21 03:19:33;;;;;;;3.00;1.47;;;11.70;99.90;;;;;;5009125;28;20701;-78
2021/01/21 03:21:58;;;;;;;3.07;2.53;;;11.70;99.90;;;;;;5011604;28;20272;-78
2021/01/21 03:24:24;;;;;;;2.70;1.10;;;11.70;99.90;;;;;;5012024;28;20184;-78
2021/01/21 03:26:50;;;;;;;3.07;1.17;;;11.80;99.90;;;;;;5015989;28;20172;-78
2021/01/21 03:29:16;;;;;;;3.53;1.30;;;11.90;99.90;;;;;;5023560;28;20822;-78
2021/01/21 03:31:41;;;;;;;1.60;1.40;;;11.80;99.90;;;;;;5014267;28;20196;-78
2021/01/21 03:34:07;;;;;;;1.60;1.20;;;11.90;99.90;;;;;;5023814;28;20722;-78
2021/01/21 03:36:32;;;;;;;2.60;1.20;;;11.90;99.90;;;;;;5025267;28;20195;-78
2021/01/21 03:38:58;;;;;;;5.07;1.17;;;11.80;99.90;;;;;;5016566;28;20218;-79
2021/01/21 03:41:23;;;;;;;2.17;1.37;;;11.90;99.90;;;;;;5006150;28;20207;-78
2021/01/21 03:43:49;;;;;;;2.73;1.70;;;11.90;99.90;;;;;;5020429;28;20190;-78
2021/01/21 03:46:14;;;;;;;2.70;1.20;;;11.90;99.90;;;;;;5013534;28;20549;-78
2021/01/21 03:48:40;;;;;;;3.93;1.40;;;11.90;99.90;;;;;;5012802;28;20210;-77
2021/01/21 03:51:06;;;;;;;1.20;1.10;;;12.00;99.90;;;;;;5012603;28;20188;-78
2021/01/21 03:53:31;;;;;;;3.63;1.43;;;12.00;99.90;;;;;;5012802;28;20211;-77
2021/01/21 03:55:57;;;;;;;1.03;0.90;;;12.00;99.90;;;;;;5012472;28;20191;-78
2021/01/21 03:58:22;;;;;;;1.30;1.03;;;11.90;99.90;;;;;;5019610;28;20190;-78
2021/01/21 04:00:48;;;;;;;2.40;0.93;;;11.90;99.90;;;;;;5021680;28;20218;-79
2021/01/21 04:03:14;;;;;;;4.67;1.30;;;11.90;99.90;;;;;;5024592;28;20199;-79
2021/01/21 04:05:39;;;;;;;1.40;1.20;;;11.90;99.90;;;;;;5021839;28;20194;-78
2021/01/21 04:08:05;;;;;;;1.63;1.10;;;11.80;99.90;;;;;;5023144;28;20200;-78
2021/01/21 04:10:30;;;;;;;2.73;1.23;;;11.80;99.90;;;;;;5020846;28;20688;-78
2021/01/21 04:12:56;;;;;;;3.47;1.00;;;11.80;99.90;;;;;;5012504;28;20208;-78
2021/01/21 04:15:21;;;;;;;1.87;0.90;;;11.80;99.90;;;;;;5011344;28;20558;-78
2021/01/21 04:17:47;;;;;;;1.47;1.23;;;11.70;99.90;;;;;;5017575;28;20192;-79
2021/01/21 04:20:13;;;;;;;5.50;1.00;;;11.60;99.90;;;;;;5011809;28;20548;-77
2021/01/21 04:22:38;;;;;;;1.40;1.00;;;11.50;99.90;;;;;;5013845;28;20188;-78
2021/01/21 04:25:04;;;;;;;0.93;0.80;;;11.50;99.90;;;;;;5023856;28;20184;-78
2021/01/21 04:27:30;;;;;;;3.40;1.20;;;11.60;99.90;;;;;;5023511;28;20218;-78
2021/01/21 04:29:56;;;;;;;1.70;1.40;;;11.50;99.90;;;;;;5022896;28;20442;-79
2021/01/21 04:32:21;;;;;;;2.07;1.30;;;11.50;99.90;;;;;;5023660;28;20172;-78
2021/01/21 04:34:47;;;;;;;5.40;1.20;;;11.50;99.90;;;;;;5012867;28;20173;-78
2021/01/21 04:37:12;;;;;;;2.07;0.90;;;11.50;99.90;;;;;;5023656;28;20195;-77
2021/01/21 04:39:38;;;;;;;3.33;1.03;;;11.60;99.90;;;;;;5009068;28;20194;-78
2021/01/21 04:42:04;;;;;;;3.27;0.97;;;11.60;99.90;;;;;;5020819;28;20231;-78
2021/01/21 04:44:30;;;;;;;2.33;0.90;;;11.40;99.90;;;;;;5017219;28;20184;-78
2021/01/21 04:46:58;;;;;;;2.10;1.20;;;11.40;99.90;;;;;;5027961;28;20429;-78
2021/01/21 04:49:28;;;;;;;1.27;1.00;;;11.40;99.90;;;;;;5011388;28;20250;-78
2021/01/21 04:51:57;;;;;;;1.17;0.87;;;11.40;99.90;;;;;;5012914;28;20496;-78
2021/01/21 04:54:27;;;;;;;2.30;1.30;;;11.40;99.90;;;;;;5013236;28;20430;-78
2021/01/21 04:56:55;;;;;;;1.17;0.90;;;11.40;99.90;;;;;;5043606;28;20422;-78
2021/01/21 04:59:22;;;;;;;1.00;0.70;;;11.40;99.90;;;;;;5025033;28;20449;-78
2021/01/21 05:01:48;;;;;;;1.47;0.90;;;11.30;99.90;;;;;;5022298;28;20458;-77
2021/01/21 05:04:15;;;;;;;1.40;1.10;;;11.40;99.90;;;;;;5011745;28;20471;-77
2021/01/21 05:06:40;;;;;;;1.33;1.00;;;11.30;99.90;;;;;;5015683;28;20431;-78
2021/01/21 05:09:06;;;;;;;1.40;1.00;;;11.30;99.90;;;;;;5009859;28;20874;-78
2021/01/21 05:11:32;;;;;;;4.03;1.90;;;11.20;99.90;;;;;;5008680;28;20200;-77
2021/01/21 05:13:57;;;;;;;1.67;0.97;;;11.30;99.90;;;;;;5006760;28;20176;-78
2021/01/21 05:16:23;;;;;;;4.00;1.33;;;11.20;99.90;;;;;;5011573;28;20183;-77
2021/01/21 05:18:50;;;;;;;0.97;0.80;;;11.30;99.90;;;;;;5012762;28;20659;-78
2021/01/21 05:21:17;;;;;;;1.17;1.00;;;11.20;99.90;;;;;;5014340;28;20237;-79
2021/01/21 05:23:43;;;;;;;3.50;0.93;;;11.20;99.90;;;;;;5014106;28;20435;-78
2021/01/21 05:26:09;;;;;;;1.60;1.20;;;11.10;99.90;;;;;;5026840;28;20819;-79
2021/01/21 05:28:35;;;;;;;1.27;1.17;;;11.20;99.90;;;;;;5025892;28;20472;-78
2021/01/21 05:31:01;;;;;;;1.33;0.97;;;11.10;99.90;;;;;;5023998;28;20494;-78
2021/01/21 05:33:29;;;;;;;1.50;1.10;;;11.20;99.90;;;;;;5024008;28;20256;-79
2021/01/21 05:35:55;;;;;;;4.50;0.93;;;9.90;99.90;;;;;;5034110;28;20427;-77
2021/01/21 05:38:21;;;;;;;2.90;1.37;;;8.50;99.90;;;;;;5021057;28;20488;-78
2021/01/21 05:40:47;;;;;;;2.90;0.87;;;7.90;99.90;;;;;;5024753;28;20459;-78
2021/01/21 05:43:14;;;;;;;6.67;1.40;;;7.70;99.90;;;;;;5015400;28;20184;-78
2021/01/21 05:45:45;;;;;;;5.70;1.03;;;7.00;99.90;;;;;;5016060;28;20471;-79
2021/01/21 05:48:12;;;;;;;2.20;0.90;;;7.10;99.90;;;;;;5028936;28;20952;-78
2021/01/21 05:50:38;;;;;;;2.30;1.10;;;6.90;99.90;;;;;;5015680;28;20462;-77
2021/01/21 05:53:07;;;;;;;2.30;0.90;;;6.90;99.90;;;;;;5020297;28;20490;-77
2021/01/21 05:55:36;;;;;;;1.70;0.90;;;6.80;99.90;;;;;;5017210;28;20489;-77
2021/01/21 05:58:02;;;;;;;1.53;0.97;;;6.70;99.90;;;;;;5018094;28;20522;-77
2021/01/21 06:00:30;;;;;;;3.63;1.20;;;6.50;99.90;;;;;;5017886;28;20498;-78
2021/01/21 06:02:57;;;;;;;2.00;0.93;;;6.20;99.90;;;;;;5025016;28;20919;-78
2021/01/21 06:05:24;;;;;;;2.00;0.83;;;6.20;99.90;;;;;;5020458;28;20541;-79
2021/01/21 06:07:50;;;;;;;3.20;1.00;;;6.10;99.90;;;;;;5018611;28;20983;-78
2021/01/21 06:10:18;;;;;;;1.30;0.90;;;6.10;99.90;;;;;;5018264;28;20465;-78
2021/01/21 06:12:52;;;;;;;2.77;0.90;;;5.90;99.90;;;;;;5015273;28;20762;-76
2021/01/21 06:15:19;;;;;;;1.57;0.90;;;5.90;99.90;;;;;;5011654;28;20496;-75
2021/01/21 06:17:46;;;;;;;5.10;1.47;;;5.90;99.90;;;;;;4995426;28;20447;-77
2021/01/21 06:20:13;;;;;;;3.13;1.00;;;5.90;99.90;;;;;;5013670;28;20542;-77
2021/01/21 06:22:54;;;;;;;2.30;0.90;;;5.90;99.90;;;;;;5014844;28;20438;-77
2021/01/21 06:25:21;;;;;;;1.00;0.80;;;5.90;99.90;;;;;;5021445;28;20530;-76
2021/01/21 06:27:47;;;;;;;1.10;0.97;;;6.00;99.90;;;;;;5004251;28;20469;-77
2021/01/21 06:30:16;;;;;;;4.80;0.83;;;6.00;99.90;;;;;;5026612;28;20455;-78
2021/01/21 06:32:49;;;;;;;1.77;1.20;;;6.00;99.90;;;;;;5013232;28;22190;-77
2021/01/21 06:35:19;;;;;;;5.50;1.57;;;6.00;99.90;;;;;;5015048;28;20466;-77
2021/01/21 06:37:49;;;;;;;1.30;1.20;;;6.00;99.90;;;;;;5014959;28;20442;-77
2021/01/21 06:40:17;;;;;;;2.10;0.70;;;6.00;99.90;;;;;;5014106;28;20551;-78
2021/01/21 06:42:59;;;;;;;4.40;1.47;;;6.10;99.90;;;;;;5017316;28;20851;-77
2021/01/21 06:45:25;;;;;;;3.87;1.60;;;6.10;99.90;;;;;;5016544;28;20450;-78
2021/01/21 06:47:50;;;;;;;1.30;0.90;;;6.00;99.90;;;;;;5014975;28;20455;-77
2021/01/21 06:50:17;;;;;;;7.80;1.30;;;6.10;99.90;;;;;;5027033;28;20742;-78
2021/01/21 06:52:44;;;;;;;2.13;1.10;;;6.10;99.90;;;;;;5022533;28;20167;-77
2021/01/21 06:55:11;;;;;;;5.37;1.23;;;6.20;99.90;;;;;;5022896;28;20434;-77
2021/01/21 06:57:36;;;;;;;3.90;0.90;;;6.20;99.90;;;;;;5024859;28;20438;-77
2021/01/21 07:00:17;;;;;;;4.50;1.10;;;6.20;99.90;;;;;;5016858;28;20565;-78
2021/01/21 07:02:50;;;;;;;1.33;0.80;;;6.10;99.90;;;;;;5010543;28;20176;-76
2021/01/21 07:05:22;;;;;;;1.00;0.87;;;6.10;99.90;;;;;;5029136;28;20431;-78
2021/01/21 07:08:00;;;;;;;1.10;0.90;;;6.10;99.90;;;;;;5014510;28;20467;-77
2021/01/21 07:10:36;;;;;;;2.53;0.70;;;6.10;99.90;;;;;;5016350;28;20455;-78
2021/01/21 07:13:07;;;;;;;2.60;0.90;;;6.20;99.90;;;;;;5050638;28;20407;-78
2021/01/21 07:15:40;;;;;;;2.97;0.87;;;6.10;99.90;;;;;;5030369;28;20472;-77
2021/01/21 07:18:11;;;;;;;1.20;0.90;;;6.20;99.90;;;;;;5011961;28;20431;-77
2021/01/21 07:20:59;;;;;;;3.53;1.40;;;6.10;99.90;;;;;;5007778;28;20837;-78
2021/01/21 07:23:34;;;;;;;1.37;0.77;;;6.20;99.90;;;;;;5014919;28;20993;-77
2021/01/21 07:26:41;;;;;;;2.30;0.90;;;6.20;99.90;;;;;;5031068;28;20430;-77
2021/01/21 07:29:15;;;;;;;1.73;0.90;;;6.20;99.90;;;;;;4972918;28;20503;-78
2021/01/21 07:31:52;;;;;;;1.00;0.90;;;6.20;99.90;;;;;;5017921;28;21045;-77
2021/01/21 07:34:37;;;;;;;1.10;0.90;;;6.20;99.90;;;;;;5016932;28;20434;-77
2021/01/21 07:37:24;;;;;;;0.77;0.60;;;6.20;99.90;;;;;;5008010;28;20467;-78
2021/01/21 07:39:50;;;;;;;1.30;0.93;;;6.20;99.90;;;;;;5021564;28;20431;-78
2021/01/21 07:42:16;;;;;;;6.60;6.10;;;6.20;99.90;;;;;;5013600;28;20435;-78
2021/01/21 07:44:57;;;;;;;3.20;2.50;;;6.20;99.90;;;;;;5012491;28;20190;-77
2021/01/21 07:47:43;;;;;;;4.70;3.63;;;6.20;99.90;;;;;;5014412;28;20437;-77
2021/01/21 07:50:24;;;;;;;4.60;1.60;;;6.30;99.90;;;;;;5013507;28;20438;-78
2021/01/21 07:52:55;;;;;;;2.37;1.20;;;6.30;99.90;;;;;;5018075;28;20427;-77
2021/01/21 07:55:48;;;;;;;4.03;1.20;;;6.30;99.90;;;;;;5014881;28;20553;-78
2021/01/21 07:58:14;;;;;;;1.57;0.87;;;6.30;99.90;;;;;;5027168;28;20455;-79
2021/01/21 08:00:40;;;;;;;3.20;0.90;;;6.30;99.90;;;;;;4999614;28;20499;-78
2021/01/21 08:03:05;;;;;;;4.20;1.47;;;6.30;99.90;;;;;;5032628;28;20453;-77
2021/01/21 08:05:31;;;;;;;1.47;0.90;;;6.40;99.90;;;;;;5019427;28;20447;-78
2021/01/21 08:07:57;;;;;;;6.60;1.40;;;6.40;99.90;;;;;;5016590;28;20204;-78
2021/01/21 08:10:25;;;;;;;8.23;1.40;;;6.40;99.90;;;;;;5021641;28;20259;-78
2021/01/21 08:13:14;;;;;;;10.27;1.30;;;6.40;99.90;;;;;;5005184;28;20849;-79
2021/01/21 08:15:41;;;;;;;11.10;1.83;;;6.40;99.90;;;;;;5021037;28;20461;-78
2021/01/21 08:18:06;;;;;;;2.23;1.03;;;6.50;99.90;;;;;;5016795;28;20446;-78
2021/01/21 08:20:36;;;;;;;6.57;1.20;;;6.40;99.90;;;;;;5031583;28;20454;-76
2021/01/21 08:23:08;;;;;;;3.83;2.03;;;6.40;99.90;;;;;;5016392;28;20686;-78
2021/01/21 08:25:44;;;;;;;3.17;1.10;;;6.40;99.90;;;;;;5018739;28;21038;-78
2021/01/21 08:28:13;;;;;;;2.27;1.10;;;6.50;99.90;;;;;;5017191;28;20453;-79
2021/01/21 08:30:39;;;;;;;2.87;1.10;;;6.50;99.90;;;;;;5021097;28;20463;-78
2021/01/21 08:33:07;;;;;;;3.20;1.87;;;6.50;99.90;;;;;;5022292;28;20454;-80
2021/01/21 08:35:37;;;;;;;5.27;2.20;;;6.50;99.90;;;;;;5019777;28;20186;-76
2021/01/21 08:38:05;;;;;;;5.50;1.83;;;6.50;99.90;;;;;;5013916;28;20423;-77
2021/01/21 08:40:32;;;;;;;4.43;1.43;;;6.50;99.90;;;;;;5009287;28;20450;-78
2021/01/21 08:42:59;;;;;;;8.53;2.23;;;6.70;99.90;;;;;;5017483;28;20455;-77
2021/01/21 08:45:29;;;;;;;2.97;2.00;;;7.40;99.90;;;;;;5007914;28;20843;-78
2021/01/21 08:47:56;;;;;;;5.50;1.60;;;8.70;99.90;;;;;;5017144;28;20537;-77
2021/01/21 08:50:22;;;;;;;1.83;1.10;;;9.80;99.90;;;;;;5017388;28;20465;-77
2021/01/21 08:53:02;;;;;;;3.07;1.27;;;10.70;99.90;;;;;;5012792;28;20462;-78
2021/01/21 08:55:44;;;;;;;6.30;1.73;;;11.20;99.90;;;;;;5013527;28;20477;-77
2021/01/21 08:58:15;;;;;;;2.10;1.17;;;11.70;99.90;;;;;;5009907;28;20435;-77
2021/01/21 09:01:04;;;;;;;2.87;1.37;;;12.00;99.90;;;;;;5011067;28;20450;-78
2021/01/21 09:03:53;;;;;;;5.13;1.53;;;12.20;99.90;;;;;;5010411;28;20446;-78
2021/01/21 09:06:20;;;;;;;3.67;1.30;;;13.00;99.90;;;;;;5012888;28;20509;-77
2021/01/21 09:08:54;;;;;;;2.87;1.10;;;13.30;99.90;;;;;;5028690;28;21052;-78
2021/01/21 09:11:33;;;;;;;3.23;1.13;;;13.90;99.90;;;;;;5016987;28;20478;-75
2021/01/21 09:14:02;;;;;;;3.80;1.50;;;14.20;99.90;;;;;;5011730;28;20486;-76
2021/01/21 09:16:50;;;;;;;4.53;1.50;;;15.10;99.90;;;;;;5011569;28;20947;-75
2021/01/21 09:19:40;;;;;;;4.90;1.17;;;15.10;99.90;;;;;;5012613;28;20432;-76
2021/01/21 09:22:07;;;;;;;2.30;1.20;;;16.00;99.90;;;;;;5027424;28;20446;-76
2021/01/21 09:24:34;;;;;;;2.40;1.60;;;16.20;99.90;;;;;;5014597;28;20449;-76
2021/01/21 09:27:09;;;;;;;3.30;1.00;;;16.80;99.90;;;;;;5009985;28;20426;-76
2021/01/21 09:29:57;;;;;;;3.47;1.40;;;17.30;98.00;;;;;;5003294;28;20462;-75
2021/01/21 09:32:25;;;;;;;4.27;1.50;;;16.10;97.30;;;;;;5006059;28;20465;-75
2021/01/21 09:34:55;;;;;;;3.20;1.23;;;16.60;99.90;;;;;;5008993;28;20438;-76
2021/01/21 09:37:21;;;;;;;4.90;1.50;;;16.20;99.90;;;;;;5005804;28;20419;-76
2021/01/21 09:39:48;;;;;;;7.57;1.83;;;15.50;98.20;;;;;;5008770;28;20431;-75
2021/01/21 09:42:15;;;;;;;4.10;1.60;;;14.80;98.40;;;;;;5007648;28;20447;-75
2021/01/21 09:44:40;;;;;;;6.83;1.80;;;14.30;99.90;;;;;;5010383;28;20427;-75
2021/01/21 09:47:06;;;;;;;4.30;1.47;;;14.90;99.90;;;;;;5011069;28;20465;-75
2021/01/21 09:49:32;;;;;;;5.43;1.40;;;15.00;99.90;;;;;;5007649;28;20203;-75
2021/01/21 09:51:59;;;;;;;4.33;1.70;;;14.00;99.90;;;;;;5023392;28;20222;-76
2021/01/21 09:54:25;;;;;;;3.73;1.40;;;14.00;99.90;;;;;;5012591;28;20223;-75
2021/01/21 09:56:52;;;;;;;9.03;2.00;;;13.90;99.90;;;;;;5009652;28;20805;-75
2021/01/21 09:59:18;;;;;;;3.27;1.40;;;14.70;99.90;;;;;;5021636;28;20442;-75
2021/01/21 10:01:45;;;;;;;4.00;1.53;;;14.50;99.90;;;;;;5022382;28;21007;-76
2021/01/21 10:04:11;;;;;;;2.67;1.30;;;13.90;99.90;;;;;;5007489;28;20473;-75
2021/01/21 10:06:37;;;;;;;3.57;1.30;;;13.70;99.90;;;;;;5011729;28;20427;-75
2021/01/21 10:09:02;;;;;;;4.00;1.07;;;13.00;99.90;;;;;;5006967;28;20736;-76
2021/01/21 10:11:28;;;;;;;3.43;1.43;;;13.20;99.90;;;;;;5006806;28;20189;-75
2021/01/21 10:13:54;;;;;;;4.43;1.80;;;12.60;99.90;;;;;;5010450;28;20203;-75
2021/01/21 10:16:19;;;;;;;5.17;1.50;;;13.00;99.90;;;;;;5011588;28;20187;-75
2021/01/21 10:18:45;;;;;;;10.20;1.40;;;12.40;99.90;;;;;;5017559;28;20178;-75
2021/01/21 10:21:11;;;;;;;4.93;1.20;;;11.90;99.90;;;;;;5025358;28;20204;-75
2021/01/21 10:23:36;;;;;;;6.13;1.50;;;11.90;99.90;;;;;;5014366;28;20180;-75
2021/01/21 10:26:02;;;;;;;4.77;1.63;;;12.20;99.90;;;;;;5012578;28;20188;-75
2021/01/21 10:28:27;;;;;;;2.23;1.07;;;12.50;99.90;;;;;;5011354;28;20207;-75
2021/01/21 10:30:53;;;;;;;5.63;1.80;;;12.10;99.90;;;;;;5011229;28;20307;-75
2021/01/21 10:33:19;;;;;;;4.13;1.27;;;11.80;99.90;;;;;;5015633;28;20707;-75
2021/01/21 10:35:45;;;;;;;4.80;1.60;;;11.50;99.90;;;;;;5011335;28;20177;-75
2021/01/21 10:38:10;;;;;;;5.67;1.50;;;11.40;99.90;;;;;;5010332;28;21140;-75
2021/01/21 10:40:36;;;;;;;5.27;1.00;;;11.90;99.90;;;;;;5014645;28;20211;-75
2021/01/21 10:43:02;;;;;;;1.80;1.20;;;12.70;99.90;;;;;;5008281;28;20172;-74
2021/01/21 10:45:27;;;;;;;5.40;1.20;;;12.80;99.90;;;;;;5008745;28;21979;-74
2021/01/21 10:47:53;;;;;;;2.47;1.20;;;13.00;99.90;;;;;;5014067;28;20196;-76
2021/01/21 10:50:18;;;;;;;3.00;1.80;;;13.40;99.90;;;;;;5014911;28;20246;-76
2021/01/21 10:52:44;;;;;;;1.97;1.10;;;12.40;99.90;;;;;;5014704;28;20226;-76
2021/01/21 10:55:10;;;;;;;2.73;1.50;;;12.20;99.90;;;;;;5013033;28;20645;-75
2021/01/21 10:57:36;;;;;;;3.17;1.13;;;11.30;99.90;;;;;;5015136;28;20176;-76
2021/01/21 11:00:03;;;;;;;4.03;1.10;;;12.00;99.90;;;;;;5014626;28;20423;-76
2021/01/21 11:02:29;;;;;;;3.53;1.07;;;11.90;99.90;;;;;;5013920;28;20207;-76
2021/01/21 11:04:54;;;;;;;3.63;1.10;;;11.60;99.90;;;;;;5039587;28;20864;-76
2021/01/21 11:07:20;;;;;;;2.60;1.00;;;11.40;99.90;;;;;;5030882;28;20179;-76
2021/01/21 11:09:45;;;;;;;4.20;1.10;;;11.10;99.90;;;;;;5014608;28;20199;-76
2021/01/21 11:12:11;;;;;;;1.20;1.10;;;10.70;99.90;;;;;;5014777;28;20215;-76
2021/01/21 11:14:38;;;;;;;4.50;1.10;;;10.70;99.90;;;;;;5037431;28;20171;-76
2021/01/21 11:17:03;;;;;;;2.80;1.57;;;10.20;99.90;;;;;;5015428;28;20525;-76
2021/01/21 11:19:29;;;;;;;2.90;1.13;;;10.20;99.90;;;;;;5014641;28;20613;-76
2021/01/21 11:21:55;;;;;;;2.93;1.57;;;10.10;99.90;;;;;;5015563;28;20192;-76
2021/01/21 11:24:20;;;;;;;2.60;1.27;;;9.80;99.90;;;;;;5013908;28;21814;-76
2021/01/21 11:26:46;;;;;;;2.70;1.37;;;10.00;99.90;;;;;;5014968;28;20207;-76
2021/01/21 11:29:12;;;;;;;3.27;1.20;;;9.80;99.90;;;;;;5013990;28;20673;-76
2021/01/21 11:31:38;;;;;;;2.07;1.10;;;9.70;99.90;;;;;;5015147;28;20464;-77
2021/01/21 11:34:03;;;;;;;5.60;1.33;;;9.80;99.90;;;;;;5014372;28;20709;-77
2021/01/21 11:36:29;;;;;;;1.47;0.93;;;9.70;99.90;;;;;;5041245;28;20194;-76
2021/01/21 11:38:55;;;;;;;3.17;1.10;;;10.00;99.90;;;;;;5016795;28;20222;-76
2021/01/21 11:41:20;;;;;;;5.07;1.33;;;10.20;99.90;;;;;;5014486;28;20192;-77
2021/01/21 11:43:46;;;;;;;1.43;0.80;;;10.40;99.90;;;;;;5015251;28;20176;-77
2021/01/21 11:46:11;;;;;;;1.57;1.10;;;10.50;99.90;;;;;;5013053;28;20267;-75
2021/01/21 11:48:37;;;;;;;1.20;0.87;;;10.60;99.90;;;;;;5010297;28;20200;-76
2021/01/21 11:51:03;;;;;;;2.13;0.90;;;10.40;99.90;;;;;;5016564;28;20192;-77
2021/01/21 11:53:29;;;;;;;3.77;1.20;;;10.40;99.90;;;;;;5015794;28;20168;-76
2021/01/21 11:55:54;;;;;;;5.90;1.20;;;10.60;99.90;;;;;;5015438;28;20253;-75
2021/01/21 11:58:20;;;;;;;2.17;1.00;;;10.70;99.90;;;;;;5015307;28;20419;-76
2021/01/21 12:00:45;;;;;;;4.50;1.43;;;10.20;99.90;;;;;;5015000;28;20265;-77
2021/01/21 12:03:11;;;;;;;2.80;1.37;;;10.20;99.90;;;;;;5017030;28;20561;-76
2021/01/21 12:05:37;;;;;;;4.73;1.00;;;10.20;99.90;;;;;;5014106;28;20252;-77
2021/01/21 12:08:03;;;;;;;2.43;1.10;;;10.00;99.90;;;;;;5010256;28;20184;-77
2021/01/21 12:10:30;;;;;;;4.20;1.87;;;9.80;99.90;;;;;;5013956;28;20526;-76
2021/01/21 12:12:55;;;;;;;2.67;1.20;;;9.70;99.90;;;;;;5014256;28;20572;-77
2021/01/21 12:15:21;;;;;;;2.13;1.07;;;9.60;99.90;;;;;;5014417;28;20534;-77
2021/01/21 12:17:46;;;;;;;3.80;1.33;;;9.90;99.90;;;;;;5013500;28;20187;-77
2021/01/21 12:20:12;;;;;;;2.57;1.00;;;10.00;99.90;;;;;;5010751;28;20197;-77
2021/01/21 12:22:41;;;;;;;4.80;1.50;;;10.40;99.90;;;;;;5010283;28;20168;-76
2021/01/21 12:25:06;;;;;;;5.33;1.10;;;10.50;99.90;;;;;;5011971;28;20419;-76
2021/01/21 12:27:32;;;;;;;1.40;0.90;;;10.30;99.90;;;;;;5010443;28;20411;-76
2021/01/21 12:29:58;;;;;;;3.53;1.30;;;10.80;99.90;;;;;;5014837;28;20541;-77
2021/01/21 12:32:24;;;;;;;4.77;1.40;;;11.20;99.90;;;;;;5014758;28;20219;-77
2021/01/21 12:34:50;;;;;;;2.20;1.00;;;11.20;99.90;;;;;;5012556;28;20427;-77
2021/01/21 12:37:15;;;;;;;3.10;1.20;;;11.40;99.90;;;;;;5014772;28;20431;-76
2021/01/21 12:39:41;;;;;;;2.13;1.00;;;11.00;99.90;;;;;;5011799;28;20209;-75
2021/01/21 12:42:07;;;;;;;4.87;1.47;;;11.20;99.90;;;;;;5016350;28;20230;-77
2021/01/21 12:44:33;;;;;;;5.40;1.23;;;11.10;99.90;;;;;;5011871;28;20791;-76
2021/01/21 12:46:58;;;;;;;2.40;1.00;;;11.10;99.90;;;;;;5013133;28;20183;-76
2021/01/21 12:49:24;;;;;;;3.13;1.03;;;11.10;99.90;;;;;;5012594;28;20282;-77
2021/01/21 12:51:49;;;;;;;2.40;1.20;;;10.90;99.90;;;;;;5030281;28;20234;-77
2021/01/21 12:54:15;;;;;;;1.63;0.90;;;10.70;99.90;;;;;;5012825;28;20204;-76
2021/01/21 12:56:41;;;;;;;3.10;0.80;;;10.50;99.90;;;;;;5022134;28;20171;-76